Flight Track Log - Related Links

Times and Time Zones

All times are in EDT time to prevent confusion due to time zone crossing. See the JBU279 flight status page for this flight to view local times or setup timezone preferences in your user account.

Time Position Orientation Groundspeed Altitude Reporting Facility
EDT Latitude Longitude Course Direction KTS MPH feet Rate Location/Type
10:28AM 36.0769 -115.1625 228° Southwest 178 205 3,200  Level Los Angeles Center
10:29AM 36.0761 -115.1789 266° West 166 191 3,800 1,814 Climbing Los Angeles Center
10:30AM 36.0667 -115.2503 261° West 230 265 5,800 2,651 Climbing Los Angeles Center
10:31AM 35.9157 -115.3755 202° Southwest  Level FlightAware Approximate
10:31AM 35.9953 -115.2881 203° Southwest 280 322 9,500  Level Los Angeles Center
10:32AM 35.8179 -115.3481 161° South  Level FlightAware Approximate
10:32AM 35.8903 -115.3108 190° South 312 359 12,000  Level Los Angeles Center
10:33AM 35.7198 -115.3061 161° South  Level FlightAware Approximate
10:33AM 35.7836 -115.3075 179° South 366 421 15,300  Level Los Angeles Center
10:34AM 35.6416 -115.3282 228° Southwest  Level FlightAware Approximate
10:34AM 35.6758 -115.3128 182° South 388 447 18,000  Level Los Angeles Center
10:35AM 35.5989 -115.4022 223° Southwest 382 440 20,500 2,081 Climbing Los Angeles Center
10:36AM 35.5400 -115.4831 228° Southwest 389 448 22,300 1,707 Climbing Los Angeles Center
10:37AM 35.4481 -115.6044 227° Southwest 396 456 24,000 829 Climbing Los Angeles Center
10:38AM 35.3736 -115.7056 228° Southwest 399 459 24,000  Level Los Angeles Center
10:39AM 35.2981 -115.8069 228° Southwest 402 463 24,000  Level Los Angeles Center
10:40AM 35.2203 -115.9089 227° Southwest 406 467 24,000  Level Los Angeles Center
10:41AM 35.1433 -116.0103 227° Southwest 408 470 24,000  Level Los Angeles Center
10:42AM 35.0503 -116.1333 227° Southwest 409 471 24,000  Level Los Angeles Center
10:43AM 34.9717 -116.2347 227° Southwest 411 473 24,000  Level Los Angeles Center
10:44AM 34.8933 -116.3369 227° Southwest 412 474 24,000  Level Los Angeles Center
10:45AM 34.8150 -116.4383 227° Southwest 411 473 24,000  Level Los Angeles Center
10:46AM 34.7364 -116.5397 227° Southwest 411 473 24,000 -49 Level Los Angeles Center
10:47AM 34.6542 -116.6375 224° Southwest 411 473 23,900 -532 Descending Los Angeles Center
10:48AM 34.5539 -116.7039 209° Southwest 416 479 22,900 -1,258 Descending Los Angeles Center
10:49AM 34.4319 -116.7803 207° Southwest 411 473 21,300 -1,984 Descending Los Angeles Center
10:50AM 34.3347 -116.8406 207° Southwest 396 456 18,800 -2,323 Descending Los Angeles Center
10:51AM 34.2394 -116.8989 207° Southwest 385 443 16,500 -1,935 Descending Los Angeles Center
10:52AM 34.1456 -116.9561 207° Southwest 381 438 14,800 -1,220 Descending Los Angeles Center
10:53AM 34.0494 -117.0172 208° Southwest 369 425 14,000 -472 Descending Los Angeles Center
10:54AM 34.0000 -117.0500 209° Southwest 368 423 14,100 -512 Climbing Southern California TRACON
10:55AM 33.9333 -117.1000 212° Southwest 358 412 13,300 -875 Descending Southern California TRACON
10:55AM 33.8742 -117.1264 200° South 353 406 12,700 -923 Descending Los Angeles Center
10:57AM 33.8217 -117.1886 225° Southwest 309 356 11,700 -919 Descending Los Angeles Center
10:58AM 33.8114 -117.2853 263° West 295 339 10,800 -1,016 Descending Los Angeles Center
10:59AM 33.7997 -117.4017 263° West 293 337 9,600 -978 Descending Los Angeles Center
11:00AM 33.7892 -117.4944 262° West 286 329 8,600 -882 Descending Los Angeles Center
11:01AM 33.7736 -117.6033 260° West 280 322 7,600 -912 Descending Los Angeles Center
11:02AM 33.7500 -117.7000 254° West 254 292 6,700 -934 Descending Southern California TRACON
11:03AM 33.7167 -117.7667 239° Southwest 236 272 5,700 -1,000 Descending Southern California TRACON
11:04AM 33.7000 -117.8500 257° West 223 257 4,700 -900 Descending Southern California TRACON
11:05AM 33.6833 -117.9167 253° West 209 241 3,900 -800 Descending Southern California TRACON
11:06AM 33.7000 -117.9833 287° West 204 235 3,100 -600 Descending Southern California TRACON
11:07AM 33.7167 -118.0333 292° West 183 211 2,700 -700 Descending Southern California TRACON
11:08AM 33.7500 -118.0667 320° Northwest 173 199 1,700 -900 Descending Southern California TRACON
11:09AM 33.7833 -118.1167 309° West 135 155 900 -750 Descending Southern California TRACON
11:10AM 33.8000 -118.1333 320° Northwest 124 143 200 -632 Descending Southern California TRACON
11:10AM 33.8131 -118.1456 322° Northwest 138 159 100 -375 Descending Los Angeles Center

Login

Don't have an account? Register now (free) for customized features, flight alerts, and more!